Altamont, South Dakota
Current Conditions -  °F | °C
As of 2:14 AM on Friday 24 Oct 2014 (Local Time) from KCNB Reporting Station
Clear Clear  
Wind Chill: 56°   Ceiling: Unl
Heat Index: 56°   Visibility: 10mi
Dew Point: 47°   Wind: 10mph
Humidity: 71%   Direction: 200°SSW
Pressure: 29.86"   Gusts: 16mph
Location:  44.7895°N, 96.7201°W
Report Text: KCNB 240714Z AUTO 20009G14KT 10SM CLR 14/09 A2986 RMK AO2 T01360085
Loading
Personal Weather Stations






























Interactive Weather Map
Tropical Storm Tracking
New forecast layout! Learn more

10-Day Weather Forecast

Advertisements
Track Severe Weather on mobile